createdAt,value
2023-05-05T00:14:59.543Z,33.3536
2023-05-05T00:30:01.371Z,33.4904
2023-05-05T00:45:03.132Z,33.0063
2023-05-05T01:00:04.951Z,32.9964
2023-05-05T01:15:07.762Z,32.5383
2023-05-05T01:30:09.673Z,32.9834
2023-05-05T01:45:11.643Z,32.6974
2023-05-05T02:00:13.524Z,32.3885
2023-05-05T02:15:15.328Z,32.0313
2023-05-05T02:30:17.116Z,32.1706
2023-05-05T02:45:18.909Z,32.2164
2023-05-05T03:00:20.671Z,31.7484
2023-05-05T03:15:22.422Z,32.4597
2023-05-05T03:30:24.156Z,31.3225
2023-05-05T03:45:25.965Z,32.0796
2023-05-05T04:00:27.705Z,31.5955
2023-05-05T04:15:29.394Z,31.4556
2023-05-05T04:30:31.168Z,31.3188
2023-05-05T04:45:32.887Z,31.6667
2023-05-05T05:00:34.659Z,31.4587
2023-05-05T05:15:36.474Z,32.0177
2023-05-05T05:30:38.245Z,31.5559
2023-05-05T05:45:39.936Z,31.5237
2023-05-05T06:00:41.721Z,31.1337
2023-05-05T06:15:43.528Z,31.4228
2023-05-05T06:30:45.326Z,31.0817
2023-05-05T06:45:47.072Z,31.2569
2023-05-05T07:00:48.889Z,30.8929
2023-05-05T07:15:50.735Z,30.948
2023-05-05T07:30:52.463Z,30.584
2023-05-05T07:45:54.178Z,30.2299
2023-05-05T08:00:55.935Z,30.5091
2023-05-05T08:15:57.749Z,30.2782
2023-05-05T08:30:59.570Z,29.8009
2023-05-05T08:46:01.333Z,29.7161
2023-05-05T09:01:03.178Z,30.1154
2023-05-05T09:16:04.907Z,29.6672
2023-05-05T09:31:06.796Z,29.2902
2023-05-05T09:46:08.657Z,29.4394
2023-05-05T10:01:10.561Z,29.2475
2023-05-05T10:16:12.341Z,28.7603
2023-05-05T10:31:25.118Z,28.7213
2023-05-05T10:46:28.444Z,28.9714
2023-05-05T11:01:30.404Z,28.8866
2023-05-05T11:16:32.311Z,28.1072
2023-05-05T11:31:34.155Z,28.3796
2023-05-05T11:46:35.963Z,28.3146
2023-05-05T12:01:37.835Z,28.0905
2023-05-05T12:16:39.629Z,28.2886
2023-05-05T12:31:41.638Z,27.9085
2023-05-05T12:46:43.413Z,27.9797
2023-05-05T13:01:45.168Z,27.6745
2023-05-05T13:16:46.918Z,27.5575
2023-05-05T13:31:48.981Z,27.6516
2023-05-05T13:46:51.021Z,27.2715
2023-05-05T14:01:52.791Z,27.5086
2023-05-05T14:16:54.517Z,27.5247
2023-05-05T14:31:56.300Z,27.1446
2023-05-05T14:46:58.098Z,26.8326
2023-05-05T15:01:59.911Z,27.1997
2023-05-05T15:17:01.694Z,27.1607
2023-05-05T15:32:03.507Z,26.7416
2023-05-05T15:47:05.450Z,26.7026
2023-05-05T16:02:07.277Z,26.7676
2023-05-05T16:17:09.016Z,26.8685
2023-05-05T16:32:10.777Z,26.9558
2023-05-05T16:47:12.517Z,27.1248
2023-05-05T17:02:14.274Z,27.2288
2023-05-05T17:17:15.985Z,26.9137
2023-05-05T17:32:17.762Z,27.1316
2023-05-05T17:47:19.479Z,27.1477
2023-05-05T18:02:21.327Z,27.3229
2023-05-05T18:17:23.146Z,27.5278
2023-05-05T18:32:24.958Z,27.5637
2023-05-05T18:47:26.757Z,26.5887
2023-05-05T19:02:28.498Z,26.7416
2023-05-05T19:17:30.283Z,26.7509
2023-05-05T19:32:31.984Z,26.7317
2023-05-05T19:47:33.783Z,26.9527
2023-05-05T20:02:37.056Z,27.2455
2023-05-05T20:17:39.077Z,27.0635
2023-05-05T20:32:40.895Z,27.3848
2023-05-05T20:47:42.709Z,27.0796
2023-05-05T21:02:44.593Z,26.9267
2023-05-05T21:17:46.543Z,25.6137
2023-05-05T21:32:48.347Z,25.0417
2023-05-05T21:47:50.136Z,24.4604
2023-05-05T22:02:51.891Z,26.3293
2023-05-05T22:17:53.646Z,25.3667
2023-05-05T22:32:55.383Z,26.1436
2023-05-05T22:47:57.105Z,26.7546
2023-05-05T23:02:58.887Z,26.4525
2023-05-05T23:18:00.894Z,25.6923
2023-05-05T23:33:02.722Z,26.0656
2023-05-05T23:48:04.483Z,26.3714
